Strona główna
METAR-TAF:

METAR-TAF

Lotnisko :

Wellsville Municipal Airport (Tarantine Field)

Wellsville, Nowy Jork, Stany Zjednoczone

Szerokość geograficzna: 42-06-27N, Długość geograficzna: 077-59-04W, wysokość: 647 m

Aktualna obserwacja pogody

Raport powstał 33 minut temu, godzina 21:56 UTC
Wiatr 9 kt od południe w porywach dochodzący do 19 kt
Temperatura 1°C
Wilgotność 69%
Ciśnienie 1019 hPa
Widzialność: 16.1 km
Zachmurzenie całkowite na wysokości 5000 ft

METAR: KELZ 082156Z AUTO 17009G19KT 10SM OVC050 01/M04 A3009 RMK AO2 SLP216 T00111039 $

czas: 17:29 (22:29 UTC)


TAF: brakujący

Obserwacja i prognoza pogody dla ponad 4000 lotnisk (raport METAR i TAF).

Dostępne stacje oznaczono żółtymi i czerwonymi punktami na mapie.

Najedź kursorem aby zobaczyć nazwę stacji.

Kliknij aby zobaczyć obserwacje i prognozy pogody.

Aby zmienić mapę: kliknij na zielony przycisk z czarnym krzyżykiem, aby powiększyć; na zielony przycisk z myślnikiem, aby pomniejszyć; na zielone strzałki, aby przejść do map sąsiednich.


METAR-TAF: